OPKC

Karachi/Jinnah International Airport

Airport
ICAO code
OPKC
IATA Code
KHI
Summary
ICAO Region
MID
ICAO Territory
Location

Karachi, Sindh

Serving
Karachi
Elevation
100 ft
Coordinates
24° 54' 17" N , 67° 9' 26" E
KCC
Metar
Observation
OPKC 300930Z 23014KT 6000 SCT030 32/20 Q1007 NOSIG
Station
Karachi Airport
Date/Time
2022-09-30 09:30:00
Wind direction
230°
Wind speed
14 kts
Lowest cloud amount
scattered clouds
Temperature
32°C
Dew point
20°C
Humidity
49%
QNH
1007 hPa
Weather condition
n/a

International airport serving Karachi, Pakistan.

Climatology

Mild Desert Climate (Köppen climate classification BWh).

Karachi tends to have a relatively mild, arid climate with low average precipitation levels (approximately 250 mm per annum), the bulk of which occurs during the July-August monsoon season. Winters are mild & dry, while the summers are hot & humid; the proximity to the sea maintains humidity levels at a near-constant high and cool sea breezes relieve the heat of the summer months.

Runways

Designator Length Width Surface Rops
07L/25R 3200 46 CON Yes/Yes
07R/25L 3400 46 CON Yes/Yes

SKYbrary Partners:

Safety knowledge contributed by: